sensor_id;sensor_type;location;lat;lon;timestamp;P1;durP1;ratioP1;P2;durP2;ratioP2
9661;SDS011;24982;52.344;12.990;2023-03-20T00:01:42;5.90;;;3.90;;
9661;SDS011;24982;52.344;12.990;2023-03-20T00:04:46;3.67;;;3.38;;
9661;SDS011;24982;52.344;12.990;2023-03-20T00:07:48;4.50;;;3.75;;
9661;SDS011;24982;52.344;12.990;2023-03-20T00:10:50;4.50;;;3.88;;
9661;SDS011;24982;52.344;12.990;2023-03-20T00:13:52;4.32;;;3.78;;
9661;SDS011;24982;52.344;12.990;2023-03-20T00:16:55;4.28;;;3.88;;
9661;SDS011;24982;52.344;12.990;2023-03-20T00:19:58;6.63;;;4.07;;
9661;SDS011;24982;52.344;12.990;2023-03-20T00:23:01;6.75;;;4.07;;
9661;SDS011;24982;52.344;12.990;2023-03-20T00:26:03;4.07;;;3.78;;
9661;SDS011;24982;52.344;12.990;2023-03-20T00:29:06;4.57;;;3.70;;
9661;SDS011;24982;52.344;12.990;2023-03-20T00:32:14;5.55;;;4.05;;
9661;SDS011;24982;52.344;12.990;2023-03-20T00:35:20;5.65;;;3.42;;
9661;SDS011;24982;52.344;12.990;2023-03-20T00:38:24;4.15;;;3.70;;
9661;SDS011;24982;52.344;12.990;2023-03-20T00:41:27;6.78;;;3.63;;
9661;SDS011;24982;52.344;12.990;2023-03-20T00:44:33;3.95;;;3.42;;
9661;SDS011;24982;52.344;12.990;2023-03-20T00:47:37;6.15;;;3.15;;
9661;SDS011;24982;52.344;12.990;2023-03-20T00:50:42;3.63;;;3.33;;
9661;SDS011;24982;52.344;12.990;2023-03-20T00:53:44;3.28;;;3.08;;
9661;SDS011;24982;52.344;12.990;2023-03-20T00:56:47;3.28;;;3.05;;
9661;SDS011;24982;52.344;12.990;2023-03-20T00:59:55;4.57;;;3.45;;
9661;SDS011;24982;52.344;12.990;2023-03-20T01:03:01;4.50;;;3.40;;
9661;SDS011;24982;52.344;12.990;2023-03-20T01:06:12;4.82;;;4.15;;
9661;SDS011;24982;52.344;12.990;2023-03-20T01:09:14;8.20;;;4.57;;
9661;SDS011;24982;52.344;12.990;2023-03-20T01:12:17;4.57;;;4.18;;
9661;SDS011;24982;52.344;12.990;2023-03-20T01:15:20;5.07;;;4.50;;
9661;SDS011;24982;52.344;12.990;2023-03-20T01:18:24;6.07;;;5.15;;
9661;SDS011;24982;52.344;12.990;2023-03-20T01:21:28;5.07;;;4.68;;
9661;SDS011;24982;52.344;12.990;2023-03-20T01:24:31;4.88;;;4.38;;
9661;SDS011;24982;52.344;12.990;2023-03-20T01:27:33;7.13;;;4.50;;
9661;SDS011;24982;52.344;12.990;2023-03-20T01:30:35;4.32;;;3.92;;
9661;SDS011;24982;52.344;12.990;2023-03-20T01:33:37;5.30;;;4.10;;
9661;SDS011;24982;52.344;12.990;2023-03-20T01:36:40;4.13;;;3.80;;
9661;SDS011;24982;52.344;12.990;2023-03-20T01:39:45;4.30;;;3.90;;
9661;SDS011;24982;52.344;12.990;2023-03-20T01:42:48;4.65;;;4.10;;
9661;SDS011;24982;52.344;12.990;2023-03-20T01:45:55;4.47;;;4.05;;
9661;SDS011;24982;52.344;12.990;2023-03-20T01:49:07;4.38;;;4.00;;
9661;SDS011;24982;52.344;12.990;2023-03-20T01:52:35;4.35;;;3.95;;
9661;SDS011;24982;52.344;12.990;2023-03-20T01:55:38;4.72;;;4.32;;
9661;SDS011;24982;52.344;12.990;2023-03-20T01:58:43;6.78;;;4.35;;
9661;SDS011;24982;52.344;12.990;2023-03-20T02:01:48;5.20;;;4.10;;
9661;SDS011;24982;52.344;12.990;2023-03-20T02:04:55;5.97;;;4.22;;
9661;SDS011;24982;52.344;12.990;2023-03-20T02:11:24;4.60;;;4.20;;
9661;SDS011;24982;52.344;12.990;2023-03-20T02:14:26;4.78;;;4.35;;
9661;SDS011;24982;52.344;12.990;2023-03-20T02:17:46;4.60;;;3.97;;
9661;SDS011;24982;52.344;12.990;2023-03-20T02:20:51;5.63;;;3.97;;
9661;SDS011;24982;52.344;12.990;2023-03-20T02:35:40;4.55;;;4.15;;
9661;SDS011;24982;52.344;12.990;2023-03-20T02:38:59;5.15;;;4.15;;
9661;SDS011;24982;52.344;12.990;2023-03-20T02:42:22;5.63;;;4.40;;
9661;SDS011;24982;52.344;12.990;2023-03-20T02:45:32;4.93;;;4.05;;
9661;SDS011;24982;52.344;12.990;2023-03-20T02:48:46;4.10;;;3.80;;
9661;SDS011;24982;52.344;12.990;2023-03-20T02:51:57;4.75;;;4.30;;
9661;SDS011;24982;52.344;12.990;2023-03-20T02:55:09;5.65;;;4.18;;
9661;SDS011;24982;52.344;12.990;2023-03-20T02:58:18;4.32;;;4.03;;
9661;SDS011;24982;52.344;12.990;2023-03-20T03:01:25;4.57;;;3.83;;
9661;SDS011;24982;52.344;12.990;2023-03-20T03:04:31;4.95;;;4.30;;
9661;SDS011;24982;52.344;12.990;2023-03-20T03:07:36;4.40;;;4.00;;
9661;SDS011;24982;52.344;12.990;2023-03-20T03:10:43;4.57;;;4.22;;
9661;SDS011;24982;52.344;12.990;2023-03-20T03:13:49;5.10;;;4.60;;
9661;SDS011;24982;52.344;12.990;2023-03-20T03:16:54;5.18;;;4.22;;
9661;SDS011;24982;52.344;12.990;2023-03-20T03:19:58;5.13;;;4.60;;
9661;SDS011;24982;52.344;12.990;2023-03-20T03:23:06;4.80;;;4.40;;
9661;SDS011;24982;52.344;12.990;2023-03-20T03:26:09;5.53;;;5.05;;
9661;SDS011;24982;52.344;12.990;2023-03-20T03:29:15;6.68;;;4.57;;
9661;SDS011;24982;52.344;12.990;2023-03-20T03:32:20;5.65;;;5.15;;
9661;SDS011;24982;52.344;12.990;2023-03-20T03:35:26;5.10;;;4.60;;
9661;SDS011;24982;52.344;12.990;2023-03-20T03:38:29;5.60;;;5.10;;
9661;SDS011;24982;52.344;12.990;2023-03-20T03:41:43;6.18;;;5.50;;
9661;SDS011;24982;52.344;12.990;2023-03-20T03:44:52;7.85;;;5.28;;
9661;SDS011;24982;52.344;12.990;2023-03-20T03:48:00;5.85;;;5.28;;
9661;SDS011;24982;52.344;12.990;2023-03-20T03:51:06;7.32;;;4.80;;
9661;SDS011;24982;52.344;12.990;2023-03-20T03:54:21;7.28;;;5.65;;
9661;SDS011;24982;52.344;12.990;2023-03-20T03:57:49;7.07;;;5.68;;
9661;SDS011;24982;52.344;12.990;2023-03-20T04:00:56;6.65;;;6.05;;
9661;SDS011;24982;52.344;12.990;2023-03-20T04:04:02;6.45;;;5.28;;
9661;SDS011;24982;52.344;12.990;2023-03-20T04:07:07;6.55;;;5.68;;
9661;SDS011;24982;52.344;12.990;2023-03-20T04:10:10;7.65;;;6.00;;
9661;SDS011;24982;52.344;12.990;2023-03-20T04:13:15;7.00;;;5.85;;
9661;SDS011;24982;52.344;12.990;2023-03-20T04:16:18;6.57;;;5.95;;
9661;SDS011;24982;52.344;12.990;2023-03-20T04:19:21;6.65;;;5.80;;
9661;SDS011;24982;52.344;12.990;2023-03-20T04:22:24;6.70;;;6.10;;
9661;SDS011;24982;52.344;12.990;2023-03-20T04:25:26;7.47;;;6.20;;
9661;SDS011;24982;52.344;12.990;2023-03-20T04:28:31;7.05;;;6.35;;
9661;SDS011;24982;52.344;12.990;2023-03-20T04:31:44;9.48;;;7.22;;
9661;SDS011;24982;52.344;12.990;2023-03-20T04:34:56;7.65;;;6.95;;
9661;SDS011;24982;52.344;12.990;2023-03-20T04:38:16;7.90;;;6.60;;
9661;SDS011;24982;52.344;12.990;2023-03-20T04:41:19;7.63;;;6.93;;
9661;SDS011;24982;52.344;12.990;2023-03-20T04:44:26;7.07;;;6.40;;
9661;SDS011;24982;52.344;12.990;2023-03-20T04:47:28;10.25;;;6.85;;
9661;SDS011;24982;52.344;12.990;2023-03-20T04:50:30;11.75;;;7.63;;
9661;SDS011;24982;52.344;12.990;2023-03-20T04:53:33;11.73;;;8.25;;
9661;SDS011;24982;52.344;12.990;2023-03-20T04:56:36;11.57;;;8.60;;
9661;SDS011;24982;52.344;12.990;2023-03-20T04:59:49;9.20;;;7.63;;
9661;SDS011;24982;52.344;12.990;2023-03-20T05:02:51;9.57;;;7.72;;
9661;SDS011;24982;52.344;12.990;2023-03-20T05:05:54;8.15;;;7.35;;
9661;SDS011;24982;52.344;12.990;2023-03-20T05:08:56;8.75;;;7.85;;
9661;SDS011;24982;52.344;12.990;2023-03-20T05:11:58;9.13;;;8.00;;
9661;SDS011;24982;52.344;12.990;2023-03-20T05:15:17;10.63;;;8.07;;
9661;SDS011;24982;52.344;12.990;2023-03-20T05:18:39;10.48;;;8.68;;
9661;SDS011;24982;52.344;12.990;2023-03-20T05:21:59;10.52;;;8.65;;
9661;SDS011;24982;52.344;12.990;2023-03-20T05:25:21;10.48;;;8.75;;
9661;SDS011;24982;52.344;12.990;2023-03-20T05:28:38;9.25;;;8.27;;
9661;SDS011;24982;52.344;12.990;2023-03-20T05:31:50;12.70;;;9.48;;
9661;SDS011;24982;52.344;12.990;2023-03-20T05:35:05;12.23;;;9.95;;
9661;SDS011;24982;52.344;12.990;2023-03-20T05:38:24;11.40;;;9.18;;
9661;SDS011;24982;52.344;12.990;2023-03-20T05:41:47;13.48;;;10.20;;
9661;SDS011;24982;52.344;12.990;2023-03-20T05:45:07;12.30;;;10.90;;
9661;SDS011;24982;52.344;12.990;2023-03-20T05:48:30;12.50;;;11.18;;
9661;SDS011;24982;52.344;12.990;2023-03-20T05:51:44;13.68;;;11.10;;
9661;SDS011;24982;52.344;12.990;2023-03-20T05:55:08;16.63;;;12.27;;
9661;SDS011;24982;52.344;12.990;2023-03-20T05:58:15;14.63;;;12.23;;
9661;SDS011;24982;52.344;12.990;2023-03-20T06:01:17;16.95;;;13.88;;
9661;SDS011;24982;52.344;12.990;2023-03-20T06:04:40;18.20;;;15.40;;
9661;SDS011;24982;52.344;12.990;2023-03-20T06:08:14;18.27;;;15.35;;
9661;SDS011;24982;52.344;12.990;2023-03-20T06:11:16;20.83;;;16.25;;
9661;SDS011;24982;52.344;12.990;2023-03-20T06:14:18;18.10;;;16.20;;
9661;SDS011;24982;52.344;12.990;2023-03-20T06:17:28;21.70;;;17.50;;
9661;SDS011;24982;52.344;12.990;2023-03-20T06:20:37;29.10;;;23.05;;
9661;SDS011;24982;52.344;12.990;2023-03-20T06:23:39;28.40;;;23.65;;
9661;SDS011;24982;52.344;12.990;2023-03-20T06:26:42;31.25;;;23.65;;
9661;SDS011;24982;52.344;12.990;2023-03-20T06:29:46;32.28;;;24.25;;
9661;SDS011;24982;52.344;12.990;2023-03-20T06:32:59;34.83;;;25.05;;
9661;SDS011;24982;52.344;12.990;2023-03-20T06:36:13;32.45;;;25.27;;
9661;SDS011;24982;52.344;12.990;2023-03-20T06:39:16;34.95;;;24.95;;
9661;SDS011;24982;52.344;12.990;2023-03-20T06:42:18;34.67;;;25.60;;
9661;SDS011;24982;52.344;12.990;2023-03-20T06:45:22;35.17;;;25.30;;
9661;SDS011;24982;52.344;12.990;2023-03-20T06:48:36;38.33;;;25.58;;
9661;SDS011;24982;52.344;12.990;2023-03-20T06:51:41;37.85;;;26.52;;
9661;SDS011;24982;52.344;12.990;2023-03-20T06:54:44;35.63;;;23.92;;
9661;SDS011;24982;52.344;12.990;2023-03-20T06:57:46;33.60;;;24.13;;
9661;SDS011;24982;52.344;12.990;2023-03-20T07:00:50;31.73;;;22.85;;
9661;SDS011;24982;52.344;12.990;2023-03-20T07:03:54;32.08;;;22.73;;
9661;SDS011;24982;52.344;12.990;2023-03-20T07:07:02;35.25;;;24.25;;
9661;SDS011;24982;52.344;12.990;2023-03-20T07:10:04;35.33;;;24.83;;
9661;SDS011;24982;52.344;12.990;2023-03-20T07:13:09;34.53;;;25.15;;
9661;SDS011;24982;52.344;12.990;2023-03-20T07:16:13;36.67;;;24.92;;
9661;SDS011;24982;52.344;12.990;2023-03-20T07:19:16;31.85;;;24.13;;
9661;SDS011;24982;52.344;12.990;2023-03-20T07:22:25;33.85;;;24.38;;
9661;SDS011;24982;52.344;12.990;2023-03-20T07:25:44;35.50;;;24.50;;
9661;SDS011;24982;52.344;12.990;2023-03-20T07:28:49;36.58;;;24.30;;
9661;SDS011;24982;52.344;12.990;2023-03-20T07:31:56;33.72;;;23.92;;
9661;SDS011;24982;52.344;12.990;2023-03-20T07:35:04;35.72;;;24.30;;
9661;SDS011;24982;52.344;12.990;2023-03-20T07:38:08;35.67;;;24.90;;
9661;SDS011;24982;52.344;12.990;2023-03-20T07:41:20;38.90;;;22.92;;
9661;SDS011;24982;52.344;12.990;2023-03-20T07:44:32;35.33;;;23.52;;
9661;SDS011;24982;52.344;12.990;2023-03-20T07:47:41;34.70;;;23.27;;
9661;SDS011;24982;52.344;12.990;2023-03-20T07:50:43;35.60;;;23.23;;
9661;SDS011;24982;52.344;12.990;2023-03-20T07:53:47;33.45;;;22.60;;
9661;SDS011;24982;52.344;12.990;2023-03-20T07:56:49;36.38;;;23.48;;
9661;SDS011;24982;52.344;12.990;2023-03-20T07:59:51;36.28;;;23.27;;
9661;SDS011;24982;52.344;12.990;2023-03-20T08:02:53;35.80;;;22.35;;
9661;SDS011;24982;52.344;12.990;2023-03-20T08:05:56;34.80;;;22.77;;
9661;SDS011;24982;52.344;12.990;2023-03-20T08:08:59;33.75;;;22.17;;
9661;SDS011;24982;52.344;12.990;2023-03-20T08:12:01;38.13;;;22.17;;
9661;SDS011;24982;52.344;12.990;2023-03-20T08:15:04;32.22;;;20.13;;
9661;SDS011;24982;52.344;12.990;2023-03-20T08:18:07;30.15;;;20.38;;
9661;SDS011;24982;52.344;12.990;2023-03-20T08:21:09;32.22;;;20.50;;
9661;SDS011;24982;52.344;12.990;2023-03-20T08:24:12;31.17;;;19.88;;
9661;SDS011;24982;52.344;12.990;2023-03-20T08:27:14;34.90;;;20.83;;
9661;SDS011;24982;52.344;12.990;2023-03-20T08:30:16;30.52;;;20.50;;
9661;SDS011;24982;52.344;12.990;2023-03-20T08:33:18;31.38;;;20.88;;
9661;SDS011;24982;52.344;12.990;2023-03-20T08:36:20;34.42;;;22.33;;
9661;SDS011;24982;52.344;12.990;2023-03-20T08:39:24;35.08;;;22.08;;
9661;SDS011;24982;52.344;12.990;2023-03-20T08:42:26;31.98;;;21.10;;
9661;SDS011;24982;52.344;12.990;2023-03-20T08:45:28;30.80;;;21.35;;
9661;SDS011;24982;52.344;12.990;2023-03-20T08:48:30;30.48;;;19.25;;
9661;SDS011;24982;52.344;12.990;2023-03-20T08:51:32;27.40;;;19.25;;
9661;SDS011;24982;52.344;12.990;2023-03-20T08:54:36;28.58;;;18.77;;
9661;SDS011;24982;52.344;12.990;2023-03-20T08:57:38;27.42;;;17.98;;
9661;SDS011;24982;52.344;12.990;2023-03-20T09:00:40;22.90;;;16.08;;
9661;SDS011;24982;52.344;12.990;2023-03-20T09:03:42;24.73;;;17.45;;
9661;SDS011;24982;52.344;12.990;2023-03-20T09:06:44;24.65;;;16.13;;
9661;SDS011;24982;52.344;12.990;2023-03-20T09:09:48;24.55;;;16.48;;
9661;SDS011;24982;52.344;12.990;2023-03-20T09:12:50;20.83;;;14.93;;
9661;SDS011;24982;52.344;12.990;2023-03-20T09:15:52;19.25;;;13.43;;
9661;SDS011;24982;52.344;12.990;2023-03-20T09:18:54;23.63;;;14.85;;
9661;SDS011;24982;52.344;12.990;2023-03-20T09:21:56;21.77;;;13.93;;
9661;SDS011;24982;52.344;12.990;2023-03-20T09:25:00;22.25;;;13.75;;
9661;SDS011;24982;52.344;12.990;2023-03-20T09:28:02;20.60;;;13.27;;
9661;SDS011;24982;52.344;12.990;2023-03-20T09:31:04;21.45;;;13.98;;
9661;SDS011;24982;52.344;12.990;2023-03-20T09:34:06;17.63;;;11.68;;
9661;SDS011;24982;52.344;12.990;2023-03-20T09:37:08;15.25;;;11.35;;
9661;SDS011;24982;52.344;12.990;2023-03-20T09:40:18;16.63;;;12.00;;
9661;SDS011;24982;52.344;12.990;2023-03-20T09:43:37;15.95;;;10.63;;
9661;SDS011;24982;52.344;12.990;2023-03-20T09:47:02;15.73;;;10.32;;
9661;SDS011;24982;52.344;12.990;2023-03-20T09:50:12;14.65;;;10.02;;
9661;SDS011;24982;52.344;12.990;2023-03-20T09:53:24;14.55;;;10.40;;
9661;SDS011;24982;52.344;12.990;2023-03-20T09:56:31;13.63;;;9.95;;
9661;SDS011;24982;52.344;12.990;2023-03-20T09:59:34;14.73;;;10.38;;
9661;SDS011;24982;52.344;12.990;2023-03-20T10:02:38;13.10;;;10.13;;
9661;SDS011;24982;52.344;12.990;2023-03-20T10:05:48;16.58;;;10.23;;
9661;SDS011;24982;52.344;12.990;2023-03-20T10:08:54;14.23;;;10.02;;
9661;SDS011;24982;52.344;12.990;2023-03-20T10:12:09;10.88;;;8.55;;
9661;SDS011;24982;52.344;12.990;2023-03-20T10:15:27;15.23;;;9.93;;
9661;SDS011;24982;52.344;12.990;2023-03-20T10:18:42;16.13;;;9.90;;
9661;SDS011;24982;52.344;12.990;2023-03-20T10:21:53;12.13;;;9.15;;
9661;SDS011;24982;52.344;12.990;2023-03-20T10:25:02;14.18;;;9.55;;
9661;SDS011;24982;52.344;12.990;2023-03-20T10:28:11;16.92;;;10.88;;
9661;SDS011;24982;52.344;12.990;2023-03-20T10:31:21;14.20;;;9.85;;
9661;SDS011;24982;52.344;12.990;2023-03-20T10:34:34;13.73;;;9.60;;
9661;SDS011;24982;52.344;12.990;2023-03-20T10:37:56;12.55;;;9.32;;
9661;SDS011;24982;52.344;12.990;2023-03-20T10:41:07;12.45;;;8.85;;
9661;SDS011;24982;52.344;12.990;2023-03-20T10:44:18;12.52;;;9.38;;
9661;SDS011;24982;52.344;12.990;2023-03-20T10:47:30;11.98;;;8.93;;
9661;SDS011;24982;52.344;12.990;2023-03-20T10:50:38;11.77;;;9.07;;
9661;SDS011;24982;52.344;12.990;2023-03-20T10:53:44;12.45;;;9.63;;
9661;SDS011;24982;52.344;12.990;2023-03-20T10:56:48;13.27;;;9.70;;
9661;SDS011;24982;52.344;12.990;2023-03-20T10:59:56;14.32;;;9.75;;
9661;SDS011;24982;52.344;12.990;2023-03-20T11:03:00;14.50;;;10.13;;
9661;SDS011;24982;52.344;12.990;2023-03-20T11:06:02;14.35;;;10.45;;
9661;SDS011;24982;52.344;12.990;2023-03-20T11:09:09;14.60;;;9.95;;
9661;SDS011;24982;52.344;12.990;2023-03-20T11:12:18;16.00;;;10.07;;
9661;SDS011;24982;52.344;12.990;2023-03-20T11:15:23;14.75;;;9.88;;
9661;SDS011;24982;52.344;12.990;2023-03-20T11:18:26;14.50;;;9.93;;
9661;SDS011;24982;52.344;12.990;2023-03-20T11:21:31;14.02;;;9.45;;
9661;SDS011;24982;52.344;12.990;2023-03-20T11:24:36;14.85;;;9.68;;
9661;SDS011;24982;52.344;12.990;2023-03-20T11:27:41;14.02;;;8.98;;
9661;SDS011;24982;52.344;12.990;2023-03-20T11:30:44;12.77;;;9.18;;
9661;SDS011;24982;52.344;12.990;2023-03-20T11:33:50;13.02;;;9.93;;
9661;SDS011;24982;52.344;12.990;2023-03-20T11:36:54;12.68;;;9.07;;
9661;SDS011;24982;52.344;12.990;2023-03-20T11:39:58;15.55;;;9.68;;
9661;SDS011;24982;52.344;12.990;2023-03-20T11:43:08;13.63;;;9.55;;
9661;SDS011;24982;52.344;12.990;2023-03-20T11:46:14;17.67;;;10.77;;
9661;SDS011;24982;52.344;12.990;2023-03-20T11:49:18;15.15;;;9.77;;
9661;SDS011;24982;52.344;12.990;2023-03-20T11:52:22;15.68;;;10.52;;
9661;SDS011;24982;52.344;12.990;2023-03-20T11:55:28;14.38;;;9.77;;
9661;SDS011;24982;52.344;12.990;2023-03-20T11:58:32;15.68;;;10.45;;
9661;SDS011;24982;52.344;12.990;2023-03-20T12:01:38;14.30;;;10.57;;
9661;SDS011;24982;52.344;12.990;2023-03-20T12:04:43;18.73;;;12.68;;
9661;SDS011;24982;52.344;12.990;2023-03-20T12:07:47;18.08;;;12.60;;
9661;SDS011;24982;52.344;12.990;2023-03-20T12:10:52;15.80;;;11.70;;
9661;SDS011;24982;52.344;12.990;2023-03-20T12:13:57;16.65;;;11.32;;
9661;SDS011;24982;52.344;12.990;2023-03-20T12:17:13;18.45;;;12.00;;
9661;SDS011;24982;52.344;12.990;2023-03-20T12:20:33;17.35;;;10.77;;
9661;SDS011;24982;52.344;12.990;2023-03-20T12:23:41;16.50;;;11.05;;
9661;SDS011;24982;52.344;12.990;2023-03-20T12:26:47;15.60;;;10.68;;
9661;SDS011;24982;52.344;12.990;2023-03-20T12:29:57;15.98;;;10.73;;
9661;SDS011;24982;52.344;12.990;2023-03-20T12:33:03;15.98;;;11.57;;
9661;SDS011;24982;52.344;12.990;2023-03-20T12:36:12;19.00;;;12.65;;
9661;SDS011;24982;52.344;12.990;2023-03-20T12:39:17;21.63;;;13.95;;
9661;SDS011;24982;52.344;12.990;2023-03-20T12:42:26;23.05;;;14.35;;
9661;SDS011;24982;52.344;12.990;2023-03-20T12:45:38;23.77;;;12.85;;
9661;SDS011;24982;52.344;12.990;2023-03-20T12:48:45;20.75;;;13.85;;
9661;SDS011;24982;52.344;12.990;2023-03-20T12:52:00;21.88;;;15.05;;
9661;SDS011;24982;52.344;12.990;2023-03-20T12:55:20;19.95;;;13.25;;
9661;SDS011;24982;52.344;12.990;2023-03-20T12:58:34;23.42;;;14.93;;
9661;SDS011;24982;52.344;12.990;2023-03-20T13:01:43;22.50;;;14.38;;
9661;SDS011;24982;52.344;12.990;2023-03-20T13:04:51;23.35;;;14.57;;
9661;SDS011;24982;52.344;12.990;2023-03-20T13:08:12;20.73;;;14.13;;
9661;SDS011;24982;52.344;12.990;2023-03-20T13:11:29;21.35;;;13.77;;
9661;SDS011;24982;52.344;12.990;2023-03-20T13:14:42;23.27;;;14.23;;
9661;SDS011;24982;52.344;12.990;2023-03-20T13:17:49;22.30;;;14.23;;
9661;SDS011;24982;52.344;12.990;2023-03-20T13:20:56;22.52;;;13.90;;
9661;SDS011;24982;52.344;12.990;2023-03-20T13:24:06;22.27;;;13.55;;
9661;SDS011;24982;52.344;12.990;2023-03-20T13:27:22;20.90;;;13.57;;
9661;SDS011;24982;52.344;12.990;2023-03-20T13:30:38;24.08;;;14.38;;
9661;SDS011;24982;52.344;12.990;2023-03-20T13:33:46;22.23;;;14.30;;
9661;SDS011;24982;52.344;12.990;2023-03-20T13:37:00;22.60;;;15.60;;
9661;SDS011;24982;52.344;12.990;2023-03-20T13:40:13;23.05;;;15.23;;
9661;SDS011;24982;52.344;12.990;2023-03-20T13:43:23;21.92;;;14.07;;
9661;SDS011;24982;52.344;12.990;2023-03-20T13:46:31;22.67;;;13.45;;
9661;SDS011;24982;52.344;12.990;2023-03-20T13:49:35;20.17;;;14.10;;
9661;SDS011;24982;52.344;12.990;2023-03-20T13:52:41;22.35;;;15.15;;
9661;SDS011;24982;52.344;12.990;2023-03-20T13:55:51;23.33;;;14.63;;
9661;SDS011;24982;52.344;12.990;2023-03-20T13:59:08;22.83;;;14.82;;
9661;SDS011;24982;52.344;12.990;2023-03-20T14:02:34;22.23;;;13.95;;
9661;SDS011;24982;52.344;12.990;2023-03-20T14:05:49;26.35;;;16.85;;
9661;SDS011;24982;52.344;12.990;2023-03-20T14:08:53;26.67;;;16.52;;
9661;SDS011;24982;52.344;12.990;2023-03-20T14:11:56;23.40;;;15.25;;
9661;SDS011;24982;52.344;12.990;2023-03-20T14:15:01;25.50;;;16.70;;
9661;SDS011;24982;52.344;12.990;2023-03-20T14:18:05;25.98;;;17.48;;
9661;SDS011;24982;52.344;12.990;2023-03-20T14:21:14;24.02;;;15.52;;
9661;SDS011;24982;52.344;12.990;2023-03-20T14:24:22;23.33;;;15.48;;
9661;SDS011;24982;52.344;12.990;2023-03-20T14:27:28;25.63;;;16.17;;
9661;SDS011;24982;52.344;12.990;2023-03-20T14:30:41;27.23;;;17.33;;
9661;SDS011;24982;52.344;12.990;2023-03-20T14:33:45;26.73;;;17.35;;
9661;SDS011;24982;52.344;12.990;2023-03-20T14:36:58;29.45;;;19.83;;
9661;SDS011;24982;52.344;12.990;2023-03-20T14:40:04;35.08;;;22.45;;
9661;SDS011;24982;52.344;12.990;2023-03-20T14:43:16;25.73;;;17.70;;
9661;SDS011;24982;52.344;12.990;2023-03-20T14:46:25;23.95;;;15.90;;
9661;SDS011;24982;52.344;12.990;2023-03-20T14:49:45;23.50;;;15.82;;
9661;SDS011;24982;52.344;12.990;2023-03-20T14:52:54;25.27;;;15.65;;
9661;SDS011;24982;52.344;12.990;2023-03-20T14:56:06;23.17;;;15.57;;
9661;SDS011;24982;52.344;12.990;2023-03-20T14:59:10;22.08;;;15.45;;
9661;SDS011;24982;52.344;12.990;2023-03-20T15:02:22;25.88;;;15.80;;
9661;SDS011;24982;52.344;12.990;2023-03-20T15:05:27;22.45;;;14.82;;
9661;SDS011;24982;52.344;12.990;2023-03-20T15:08:32;24.17;;;16.00;;
9661;SDS011;24982;52.344;12.990;2023-03-20T15:11:38;24.30;;;16.15;;
9661;SDS011;24982;52.344;12.990;2023-03-20T15:14:43;21.98;;;14.70;;
9661;SDS011;24982;52.344;12.990;2023-03-20T15:17:51;24.80;;;16.48;;
9661;SDS011;24982;52.344;12.990;2023-03-20T15:20:54;23.88;;;15.82;;
9661;SDS011;24982;52.344;12.990;2023-03-20T15:23:57;22.15;;;15.13;;
9661;SDS011;24982;52.344;12.990;2023-03-20T15:27:02;24.48;;;16.05;;
9661;SDS011;24982;52.344;12.990;2023-03-20T15:30:05;23.00;;;15.30;;
9661;SDS011;24982;52.344;12.990;2023-03-20T15:33:13;22.85;;;15.52;;
9661;SDS011;24982;52.344;12.990;2023-03-20T15:36:19;22.27;;;15.90;;
9661;SDS011;24982;52.344;12.990;2023-03-20T15:39:25;24.23;;;15.52;;
9661;SDS011;24982;52.344;12.990;2023-03-20T15:42:30;25.27;;;17.10;;
9661;SDS011;24982;52.344;12.990;2023-03-20T15:45:33;21.83;;;16.67;;
9661;SDS011;24982;52.344;12.990;2023-03-20T15:48:36;21.58;;;15.73;;
9661;SDS011;24982;52.344;12.990;2023-03-20T15:51:38;22.48;;;15.80;;
9661;SDS011;24982;52.344;12.990;2023-03-20T15:54:41;25.23;;;17.00;;
9661;SDS011;24982;52.344;12.990;2023-03-20T15:57:45;24.35;;;16.20;;
9661;SDS011;24982;52.344;12.990;2023-03-20T16:00:49;24.88;;;16.67;;
9661;SDS011;24982;52.344;12.990;2023-03-20T16:03:51;22.33;;;15.52;;
9661;SDS011;24982;52.344;12.990;2023-03-20T16:06:58;21.35;;;16.10;;
9661;SDS011;24982;52.344;12.990;2023-03-20T16:10:00;22.92;;;16.55;;
9661;SDS011;24982;52.344;12.990;2023-03-20T16:13:05;27.92;;;17.40;;
9661;SDS011;24982;52.344;12.990;2023-03-20T16:16:12;24.50;;;18.80;;
9661;SDS011;24982;52.344;12.990;2023-03-20T16:19:16;25.33;;;18.13;;
9661;SDS011;24982;52.344;12.990;2023-03-20T16:22:19;23.60;;;17.65;;
9661;SDS011;24982;52.344;12.990;2023-03-20T16:25:25;23.70;;;16.13;;
9661;SDS011;24982;52.344;12.990;2023-03-20T16:28:28;23.15;;;16.27;;
9661;SDS011;24982;52.344;12.990;2023-03-20T16:31:31;24.70;;;17.27;;
9661;SDS011;24982;52.344;12.990;2023-03-20T16:34:35;25.23;;;16.60;;
9661;SDS011;24982;52.344;12.990;2023-03-20T16:37:40;23.08;;;17.23;;
9661;SDS011;24982;52.344;12.990;2023-03-20T16:40:43;30.38;;;17.08;;
9661;SDS011;24982;52.344;12.990;2023-03-20T16:43:47;31.15;;;19.52;;
9661;SDS011;24982;52.344;12.990;2023-03-20T16:46:56;26.08;;;18.15;;
9661;SDS011;24982;52.344;12.990;2023-03-20T16:50:04;20.88;;;15.65;;
9661;SDS011;24982;52.344;12.990;2023-03-20T16:53:13;24.50;;;16.60;;
9661;SDS011;24982;52.344;12.990;2023-03-20T16:56:20;21.77;;;16.05;;
9661;SDS011;24982;52.344;12.990;2023-03-20T16:59:27;21.42;;;15.90;;
9661;SDS011;24982;52.344;12.990;2023-03-20T17:02:31;23.55;;;16.42;;
9661;SDS011;24982;52.344;12.990;2023-03-20T17:05:41;23.35;;;17.73;;
9661;SDS011;24982;52.344;12.990;2023-03-20T17:08:48;23.10;;;16.55;;
9661;SDS011;24982;52.344;12.990;2023-03-20T17:11:56;23.10;;;16.23;;
9661;SDS011;24982;52.344;12.990;2023-03-20T17:15:03;25.60;;;16.13;;
9661;SDS011;24982;52.344;12.990;2023-03-20T17:18:05;25.25;;;17.33;;
9661;SDS011;24982;52.344;12.990;2023-03-20T17:21:12;24.30;;;16.45;;
9661;SDS011;24982;52.344;12.990;2023-03-20T17:24:15;25.08;;;17.17;;
9661;SDS011;24982;52.344;12.990;2023-03-20T17:27:17;21.52;;;15.98;;
9661;SDS011;24982;52.344;12.990;2023-03-20T17:30:22;21.77;;;16.10;;
9661;SDS011;24982;52.344;12.990;2023-03-20T17:33:25;32.45;;;21.00;;
9661;SDS011;24982;52.344;12.990;2023-03-20T17:36:30;29.23;;;20.80;;
9661;SDS011;24982;52.344;12.990;2023-03-20T17:39:34;52.25;;;30.73;;
9661;SDS011;24982;52.344;12.990;2023-03-20T17:42:37;42.22;;;26.90;;
9661;SDS011;24982;52.344;12.990;2023-03-20T17:45:40;28.95;;;19.67;;
9661;SDS011;24982;52.344;12.990;2023-03-20T17:48:44;21.52;;;17.42;;
9661;SDS011;24982;52.344;12.990;2023-03-20T17:51:46;19.98;;;16.75;;
9661;SDS011;24982;52.344;12.990;2023-03-20T17:54:49;19.17;;;16.05;;
9661;SDS011;24982;52.344;12.990;2023-03-20T17:57:51;27.73;;;21.75;;
9661;SDS011;24982;52.344;12.990;2023-03-20T18:00:54;30.70;;;22.40;;
9661;SDS011;24982;52.344;12.990;2023-03-20T18:03:56;24.45;;;19.88;;
9661;SDS011;24982;52.344;12.990;2023-03-20T18:06:59;21.40;;;18.83;;
9661;SDS011;24982;52.344;12.990;2023-03-20T18:10:04;17.77;;;15.70;;
9661;SDS011;24982;52.344;12.990;2023-03-20T18:13:06;16.83;;;14.95;;
9661;SDS011;24982;52.344;12.990;2023-03-20T18:16:13;16.77;;;15.07;;
9661;SDS011;24982;52.344;12.990;2023-03-20T18:19:20;18.48;;;14.80;;
9661;SDS011;24982;52.344;12.990;2023-03-20T18:22:25;17.02;;;14.45;;
9661;SDS011;24982;52.344;12.990;2023-03-20T18:25:27;15.18;;;13.65;;
9661;SDS011;24982;52.344;12.990;2023-03-20T18:28:29;15.25;;;13.70;;
9661;SDS011;24982;52.344;12.990;2023-03-20T18:31:33;18.30;;;14.77;;
9661;SDS011;24982;52.344;12.990;2023-03-20T18:35:07;15.85;;;14.23;;
9661;SDS011;24982;52.344;12.990;2023-03-20T18:38:10;16.45;;;14.07;;
9661;SDS011;24982;52.344;12.990;2023-03-20T18:41:13;16.02;;;13.88;;